sensor_id;sensor_type;location;lat;lon;timestamp;P1;durP1;ratioP1;P2;durP2;ratioP2
9547;SDS011;4812;51.992;8.648;2022-10-14T00:00:03;97.67;;;44.13;;
9547;SDS011;4812;51.992;8.648;2022-10-14T00:02:36;100.33;;;44.40;;
9547;SDS011;4812;51.992;8.648;2022-10-14T00:05:04;95.53;;;44.47;;
9547;SDS011;4812;51.992;8.648;2022-10-14T00:07:34;82.90;;;43.90;;
9547;SDS011;4812;51.992;8.648;2022-10-14T00:10:02;91.07;;;43.53;;
9547;SDS011;4812;51.992;8.648;2022-10-14T00:12:30;102.83;;;45.83;;
9547;SDS011;4812;51.992;8.648;2022-10-14T00:14:58;104.97;;;45.00;;
9547;SDS011;4812;51.992;8.648;2022-10-14T00:17:25;99.27;;;46.43;;
9547;SDS011;4812;51.992;8.648;2022-10-14T00:19:53;103.30;;;46.20;;
9547;SDS011;4812;51.992;8.648;2022-10-14T00:22:20;98.87;;;44.80;;
9547;SDS011;4812;51.992;8.648;2022-10-14T00:24:49;97.80;;;45.40;;
9547;SDS011;4812;51.992;8.648;2022-10-14T00:27:16;109.03;;;46.13;;
9547;SDS011;4812;51.992;8.648;2022-10-14T00:29:44;90.63;;;43.90;;
9547;SDS011;4812;51.992;8.648;2022-10-14T00:32:12;93.83;;;44.83;;
9547;SDS011;4812;51.992;8.648;2022-10-14T00:34:39;89.83;;;44.50;;
9547;SDS011;4812;51.992;8.648;2022-10-14T00:37:07;79.23;;;40.67;;
9547;SDS011;4812;51.992;8.648;2022-10-14T00:39:34;80.40;;;39.67;;
9547;SDS011;4812;51.992;8.648;2022-10-14T00:42:03;75.53;;;37.10;;
9547;SDS011;4812;51.992;8.648;2022-10-14T00:47:26;65.00;;;34.60;;
9547;SDS011;4812;51.992;8.648;2022-10-14T00:49:54;82.87;;;36.17;;
9547;SDS011;4812;51.992;8.648;2022-10-14T00:52:23;61.73;;;35.03;;
9547;SDS011;4812;51.992;8.648;2022-10-14T00:54:52;72.57;;;35.03;;
9547;SDS011;4812;51.992;8.648;2022-10-14T00:57:22;68.00;;;33.70;;
9547;SDS011;4812;51.992;8.648;2022-10-14T00:59:51;59.63;;;32.27;;
9547;SDS011;4812;51.992;8.648;2022-10-14T01:02:21;53.47;;;32.77;;
9547;SDS011;4812;51.992;8.648;2022-10-14T01:04:48;61.73;;;31.80;;
9547;SDS011;4812;51.992;8.648;2022-10-14T01:07:17;71.50;;;33.43;;
9547;SDS011;4812;51.992;8.648;2022-10-14T01:09:51;67.20;;;33.53;;
9547;SDS011;4812;51.992;8.648;2022-10-14T01:12:27;71.37;;;33.93;;
9547;SDS011;4812;51.992;8.648;2022-10-14T01:15:02;79.27;;;33.40;;
9547;SDS011;4812;51.992;8.648;2022-10-14T01:17:35;70.93;;;32.73;;
9547;SDS011;4812;51.992;8.648;2022-10-14T01:20:23;69.53;;;34.00;;
9547;SDS011;4812;51.992;8.648;2022-10-14T01:22:59;67.40;;;34.60;;
9547;SDS011;4812;51.992;8.648;2022-10-14T01:25:35;74.43;;;33.50;;
9547;SDS011;4812;51.992;8.648;2022-10-14T01:28:16;60.53;;;33.00;;
9547;SDS011;4812;51.992;8.648;2022-10-14T01:30:51;68.20;;;34.80;;
9547;SDS011;4812;51.992;8.648;2022-10-14T01:33:22;76.17;;;35.83;;
9547;SDS011;4812;51.992;8.648;2022-10-14T01:35:55;68.17;;;35.50;;
9547;SDS011;4812;51.992;8.648;2022-10-14T01:38:28;89.43;;;37.40;;
9547;SDS011;4812;51.992;8.648;2022-10-14T01:41:01;81.17;;;36.10;;
9547;SDS011;4812;51.992;8.648;2022-10-14T01:43:32;77.27;;;36.03;;
9547;SDS011;4812;51.992;8.648;2022-10-14T01:46:03;78.27;;;35.77;;
9547;SDS011;4812;51.992;8.648;2022-10-14T01:48:33;78.10;;;36.47;;
9547;SDS011;4812;51.992;8.648;2022-10-14T01:51:03;72.63;;;36.93;;
9547;SDS011;4812;51.992;8.648;2022-10-14T01:53:32;88.90;;;39.10;;
9547;SDS011;4812;51.992;8.648;2022-10-14T01:56:03;81.13;;;38.90;;
9547;SDS011;4812;51.992;8.648;2022-10-14T01:58:32;93.60;;;41.13;;
9547;SDS011;4812;51.992;8.648;2022-10-14T02:01:02;94.63;;;41.97;;
9547;SDS011;4812;51.992;8.648;2022-10-14T02:03:37;91.30;;;41.40;;
9547;SDS011;4812;51.992;8.648;2022-10-14T02:06:05;91.37;;;41.03;;
9547;SDS011;4812;51.992;8.648;2022-10-14T02:08:40;103.00;;;41.37;;
9547;SDS011;4812;51.992;8.648;2022-10-14T02:11:15;96.37;;;41.10;;
9547;SDS011;4812;51.992;8.648;2022-10-14T02:13:55;107.97;;;44.03;;
9547;SDS011;4812;51.992;8.648;2022-10-14T02:16:32;95.10;;;41.90;;
9547;SDS011;4812;51.992;8.648;2022-10-14T02:19:07;119.73;;;45.03;;
9547;SDS011;4812;51.992;8.648;2022-10-14T02:21:41;124.33;;;45.83;;
9547;SDS011;4812;51.992;8.648;2022-10-14T02:24:12;119.53;;;46.60;;
9547;SDS011;4812;51.992;8.648;2022-10-14T02:26:41;145.20;;;47.03;;
9547;SDS011;4812;51.992;8.648;2022-10-14T02:29:09;134.90;;;45.77;;
9547;SDS011;4812;51.992;8.648;2022-10-14T02:31:38;145.40;;;47.60;;
9547;SDS011;4812;51.992;8.648;2022-10-14T02:34:10;133.03;;;47.63;;
9547;SDS011;4812;51.992;8.648;2022-10-14T02:36:39;134.97;;;47.83;;
9547;SDS011;4812;51.992;8.648;2022-10-14T02:39:08;130.00;;;49.23;;
9547;SDS011;4812;51.992;8.648;2022-10-14T02:41:38;131.60;;;47.70;;
9547;SDS011;4812;51.992;8.648;2022-10-14T02:44:06;147.10;;;48.30;;
9547;SDS011;4812;51.992;8.648;2022-10-14T02:46:34;153.20;;;50.83;;
9547;SDS011;4812;51.992;8.648;2022-10-14T02:49:02;143.23;;;50.20;;
9547;SDS011;4812;51.992;8.648;2022-10-14T02:51:30;147.90;;;48.20;;
9547;SDS011;4812;51.992;8.648;2022-10-14T02:53:57;138.30;;;49.77;;
9547;SDS011;4812;51.992;8.648;2022-10-14T02:56:27;144.83;;;50.23;;
9547;SDS011;4812;51.992;8.648;2022-10-14T02:58:58;142.53;;;47.17;;
9547;SDS011;4812;51.992;8.648;2022-10-14T03:01:26;146.03;;;48.53;;
9547;SDS011;4812;51.992;8.648;2022-10-14T03:03:53;140.00;;;47.43;;
9547;SDS011;4812;51.992;8.648;2022-10-14T03:06:23;159.17;;;48.83;;
9547;SDS011;4812;51.992;8.648;2022-10-14T03:08:51;149.57;;;47.57;;
9547;SDS011;4812;51.992;8.648;2022-10-14T03:11:20;139.00;;;47.27;;
9547;SDS011;4812;51.992;8.648;2022-10-14T03:13:49;140.20;;;47.60;;
9547;SDS011;4812;51.992;8.648;2022-10-14T03:16:18;138.70;;;48.83;;
9547;SDS011;4812;51.992;8.648;2022-10-14T03:18:46;149.53;;;49.43;;
9547;SDS011;4812;51.992;8.648;2022-10-14T03:21:27;153.73;;;50.43;;
9547;SDS011;4812;51.992;8.648;2022-10-14T03:23:54;144.73;;;47.33;;
9547;SDS011;4812;51.992;8.648;2022-10-14T03:26:30;144.40;;;49.57;;
9547;SDS011;4812;51.992;8.648;2022-10-14T03:28:57;158.90;;;48.63;;
9547;SDS011;4812;51.992;8.648;2022-10-14T03:31:38;164.57;;;51.10;;
9547;SDS011;4812;51.992;8.648;2022-10-14T03:34:24;146.97;;;48.00;;
9547;SDS011;4812;51.992;8.648;2022-10-14T03:37:03;159.10;;;50.23;;
9547;SDS011;4812;51.992;8.648;2022-10-14T03:39:34;155.33;;;50.83;;
9547;SDS011;4812;51.992;8.648;2022-10-14T03:42:03;176.30;;;50.37;;
9547;SDS011;4812;51.992;8.648;2022-10-14T03:44:39;148.90;;;48.40;;
9547;SDS011;4812;51.992;8.648;2022-10-14T03:47:14;175.67;;;50.60;;
9547;SDS011;4812;51.992;8.648;2022-10-14T03:49:43;178.27;;;50.67;;
9547;SDS011;4812;51.992;8.648;2022-10-14T03:52:19;165.67;;;50.27;;
9547;SDS011;4812;51.992;8.648;2022-10-14T03:54:57;159.53;;;49.67;;
9547;SDS011;4812;51.992;8.648;2022-10-14T03:57:26;153.73;;;47.77;;
9547;SDS011;4812;51.992;8.648;2022-10-14T03:59:55;142.17;;;48.03;;
9547;SDS011;4812;51.992;8.648;2022-10-14T04:02:38;173.67;;;49.67;;
9547;SDS011;4812;51.992;8.648;2022-10-14T04:05:30;134.13;;;46.73;;
9547;SDS011;4812;51.992;8.648;2022-10-14T04:08:05;136.30;;;45.93;;
9547;SDS011;4812;51.992;8.648;2022-10-14T04:10:33;156.90;;;49.67;;
9547;SDS011;4812;51.992;8.648;2022-10-14T04:13:01;139.57;;;47.67;;
9547;SDS011;4812;51.992;8.648;2022-10-14T04:15:33;139.10;;;48.80;;
9547;SDS011;4812;51.992;8.648;2022-10-14T04:18:13;140.30;;;48.17;;
9547;SDS011;4812;51.992;8.648;2022-10-14T04:20:42;156.97;;;49.27;;
9547;SDS011;4812;51.992;8.648;2022-10-14T04:23:11;165.13;;;48.37;;
9547;SDS011;4812;51.992;8.648;2022-10-14T04:25:40;165.53;;;51.57;;
9547;SDS011;4812;51.992;8.648;2022-10-14T04:28:10;151.03;;;49.30;;
9547;SDS011;4812;51.992;8.648;2022-10-14T04:30:44;151.07;;;50.53;;
9547;SDS011;4812;51.992;8.648;2022-10-14T04:33:18;167.43;;;50.90;;
9547;SDS011;4812;51.992;8.648;2022-10-14T04:35:47;166.80;;;51.03;;
9547;SDS011;4812;51.992;8.648;2022-10-14T04:38:23;178.47;;;49.57;;
9547;SDS011;4812;51.992;8.648;2022-10-14T04:40:56;153.90;;;51.00;;
9547;SDS011;4812;51.992;8.648;2022-10-14T04:43:25;167.23;;;50.97;;
9547;SDS011;4812;51.992;8.648;2022-10-14T04:45:56;173.20;;;50.63;;
9547;SDS011;4812;51.992;8.648;2022-10-14T04:48:25;153.87;;;49.23;;
9547;SDS011;4812;51.992;8.648;2022-10-14T04:50:53;148.00;;;48.50;;
9547;SDS011;4812;51.992;8.648;2022-10-14T04:53:32;175.50;;;50.90;;
9547;SDS011;4812;51.992;8.648;2022-10-14T04:56:18;173.00;;;49.20;;
9547;SDS011;4812;51.992;8.648;2022-10-14T04:58:56;155.97;;;49.43;;
9547;SDS011;4812;51.992;8.648;2022-10-14T05:01:39;164.27;;;50.20;;
9547;SDS011;4812;51.992;8.648;2022-10-14T05:04:07;175.23;;;50.77;;
9547;SDS011;4812;51.992;8.648;2022-10-14T05:06:37;173.17;;;50.43;;
9547;SDS011;4812;51.992;8.648;2022-10-14T05:09:09;181.83;;;50.77;;
9547;SDS011;4812;51.992;8.648;2022-10-14T05:11:37;218.97;;;50.67;;
9547;SDS011;4812;51.992;8.648;2022-10-14T05:14:04;160.50;;;48.40;;
9547;SDS011;4812;51.992;8.648;2022-10-14T05:16:33;184.30;;;50.70;;
9547;SDS011;4812;51.992;8.648;2022-10-14T05:19:02;205.97;;;51.97;;
9547;SDS011;4812;51.992;8.648;2022-10-14T05:21:31;202.53;;;49.73;;
9547;SDS011;4812;51.992;8.648;2022-10-14T05:24:05;176.50;;;51.90;;
9547;SDS011;4812;51.992;8.648;2022-10-14T05:26:36;193.73;;;51.83;;
9547;SDS011;4812;51.992;8.648;2022-10-14T05:29:08;187.53;;;51.00;;
9547;SDS011;4812;51.992;8.648;2022-10-14T05:31:37;216.97;;;53.30;;
9547;SDS011;4812;51.992;8.648;2022-10-14T05:34:18;214.43;;;51.93;;
9547;SDS011;4812;51.992;8.648;2022-10-14T05:36:46;234.67;;;52.90;;
9547;SDS011;4812;51.992;8.648;2022-10-14T05:39:13;206.07;;;53.63;;
9547;SDS011;4812;51.992;8.648;2022-10-14T05:41:43;182.57;;;50.67;;
9547;SDS011;4812;51.992;8.648;2022-10-14T05:44:12;208.00;;;52.33;;
9547;SDS011;4812;51.992;8.648;2022-10-14T05:46:40;220.53;;;52.77;;
9547;SDS011;4812;51.992;8.648;2022-10-14T05:49:09;296.17;;;52.50;;
9547;SDS011;4812;51.992;8.648;2022-10-14T05:51:37;183.70;;;44.87;;
9547;SDS011;4812;51.992;8.648;2022-10-14T05:54:12;188.93;;;45.57;;
9547;SDS011;4812;51.992;8.648;2022-10-14T05:56:42;286.03;;;48.47;;
9547;SDS011;4812;51.992;8.648;2022-10-14T05:59:10;219.00;;;45.40;;
9547;SDS011;4812;51.992;8.648;2022-10-14T06:01:38;238.37;;;46.07;;
9547;SDS011;4812;51.992;8.648;2022-10-14T06:04:05;240.30;;;45.77;;
9547;SDS011;4812;51.992;8.648;2022-10-14T06:06:33;274.40;;;44.07;;
9547;SDS011;4812;51.992;8.648;2022-10-14T06:09:00;166.47;;;42.90;;
9547;SDS011;4812;51.992;8.648;2022-10-14T06:11:32;212.20;;;43.47;;
9547;SDS011;4812;51.992;8.648;2022-10-14T06:14:01;208.77;;;43.93;;
9547;SDS011;4812;51.992;8.648;2022-10-14T06:16:29;148.70;;;42.17;;
9547;SDS011;4812;51.992;8.648;2022-10-14T06:18:56;144.27;;;41.43;;
9547;SDS011;4812;51.992;8.648;2022-10-14T06:21:25;156.60;;;42.90;;
9547;SDS011;4812;51.992;8.648;2022-10-14T06:23:52;131.90;;;41.20;;
9547;SDS011;4812;51.992;8.648;2022-10-14T06:26:20;143.77;;;40.77;;
9547;SDS011;4812;51.992;8.648;2022-10-14T06:28:47;116.37;;;39.67;;
9547;SDS011;4812;51.992;8.648;2022-10-14T06:31:16;122.77;;;40.23;;
9547;SDS011;4812;51.992;8.648;2022-10-14T06:33:43;125.73;;;37.10;;
9547;SDS011;4812;51.992;8.648;2022-10-14T06:36:10;90.57;;;35.10;;
9547;SDS011;4812;51.992;8.648;2022-10-14T06:38:38;96.70;;;36.43;;
9547;SDS011;4812;51.992;8.648;2022-10-14T06:41:06;85.63;;;34.20;;
9547;SDS011;4812;51.992;8.648;2022-10-14T06:43:33;104.10;;;35.77;;
9547;SDS011;4812;51.992;8.648;2022-10-14T06:46:03;82.33;;;34.63;;
9547;SDS011;4812;51.992;8.648;2022-10-14T06:48:32;69.10;;;33.63;;
9547;SDS011;4812;51.992;8.648;2022-10-14T06:50:59;76.93;;;32.57;;
9547;SDS011;4812;51.992;8.648;2022-10-14T06:53:27;63.87;;;30.80;;
9547;SDS011;4812;51.992;8.648;2022-10-14T06:55:58;61.30;;;31.07;;
9547;SDS011;4812;51.992;8.648;2022-10-14T06:58:26;52.13;;;29.17;;
9547;SDS011;4812;51.992;8.648;2022-10-14T07:00:53;53.87;;;30.50;;
9547;SDS011;4812;51.992;8.648;2022-10-14T07:03:26;61.00;;;30.00;;
9547;SDS011;4812;51.992;8.648;2022-10-14T07:05:55;50.50;;;30.07;;
9547;SDS011;4812;51.992;8.648;2022-10-14T07:08:22;61.40;;;31.37;;
9547;SDS011;4812;51.992;8.648;2022-10-14T07:10:50;62.13;;;31.40;;
9547;SDS011;4812;51.992;8.648;2022-10-14T07:13:17;58.10;;;31.33;;
9547;SDS011;4812;51.992;8.648;2022-10-14T07:15:46;63.77;;;31.60;;
9547;SDS011;4812;51.992;8.648;2022-10-14T07:18:13;60.97;;;32.63;;
9547;SDS011;4812;51.992;8.648;2022-10-14T07:20:41;64.57;;;34.90;;
9547;SDS011;4812;51.992;8.648;2022-10-14T07:23:10;66.67;;;35.20;;
9547;SDS011;4812;51.992;8.648;2022-10-14T07:25:37;69.00;;;34.77;;
9547;SDS011;4812;51.992;8.648;2022-10-14T07:28:05;59.40;;;34.53;;
9547;SDS011;4812;51.992;8.648;2022-10-14T07:30:32;67.37;;;35.17;;
9547;SDS011;4812;51.992;8.648;2022-10-14T07:33:00;53.23;;;31.97;;
9547;SDS011;4812;51.992;8.648;2022-10-14T07:35:28;54.53;;;34.33;;
9547;SDS011;4812;51.992;8.648;2022-10-14T07:37:58;61.13;;;34.23;;
9547;SDS011;4812;51.992;8.648;2022-10-14T07:40:26;57.33;;;33.60;;
9547;SDS011;4812;51.992;8.648;2022-10-14T07:42:54;63.30;;;34.87;;
9547;SDS011;4812;51.992;8.648;2022-10-14T07:45:22;57.50;;;36.00;;
9547;SDS011;4812;51.992;8.648;2022-10-14T07:47:49;49.90;;;34.40;;
9547;SDS011;4812;51.992;8.648;2022-10-14T07:50:18;54.50;;;34.10;;
9547;SDS011;4812;51.992;8.648;2022-10-14T07:52:45;46.53;;;33.03;;
9547;SDS011;4812;51.992;8.648;2022-10-14T07:55:13;48.53;;;32.77;;
9547;SDS011;4812;51.992;8.648;2022-10-14T07:57:41;43.20;;;31.97;;
9547;SDS011;4812;51.992;8.648;2022-10-14T08:00:09;42.07;;;31.90;;
9547;SDS011;4812;51.992;8.648;2022-10-14T08:02:37;36.33;;;27.73;;
9547;SDS011;4812;51.992;8.648;2022-10-14T08:05:05;34.33;;;28.33;;
9547;SDS011;4812;51.992;8.648;2022-10-14T08:07:52;36.90;;;29.00;;
9547;SDS011;4812;51.992;8.648;2022-10-14T08:10:20;36.10;;;29.07;;
9547;SDS011;4812;51.992;8.648;2022-10-14T08:12:48;32.43;;;27.10;;
9547;SDS011;4812;51.992;8.648;2022-10-14T08:15:16;32.30;;;27.43;;
9547;SDS011;4812;51.992;8.648;2022-10-14T08:17:44;33.40;;;28.27;;
9547;SDS011;4812;51.992;8.648;2022-10-14T08:20:11;31.63;;;26.93;;
9547;SDS011;4812;51.992;8.648;2022-10-14T08:22:39;34.67;;;27.43;;
9547;SDS011;4812;51.992;8.648;2022-10-14T08:25:06;29.50;;;26.07;;
9547;SDS011;4812;51.992;8.648;2022-10-14T08:27:34;30.80;;;26.13;;
9547;SDS011;4812;51.992;8.648;2022-10-14T08:30:03;32.93;;;26.60;;
9547;SDS011;4812;51.992;8.648;2022-10-14T08:32:36;30.80;;;24.90;;
9547;SDS011;4812;51.992;8.648;2022-10-14T08:35:04;27.53;;;23.20;;
9547;SDS011;4812;51.992;8.648;2022-10-14T08:37:32;25.67;;;22.40;;
9547;SDS011;4812;51.992;8.648;2022-10-14T08:39:59;27.10;;;24.17;;
9547;SDS011;4812;51.992;8.648;2022-10-14T08:42:29;26.90;;;23.53;;
9547;SDS011;4812;51.992;8.648;2022-10-14T08:45:03;28.77;;;23.73;;
9547;SDS011;4812;51.992;8.648;2022-10-14T08:52:51;24.97;;;22.13;;
9547;SDS011;4812;51.992;8.648;2022-10-14T08:55:22;25.00;;;22.50;;
9547;SDS011;4812;51.992;8.648;2022-10-14T08:57:55;25.57;;;22.97;;
9547;SDS011;4812;51.992;8.648;2022-10-14T09:00:25;24.07;;;21.67;;
9547;SDS011;4812;51.992;8.648;2022-10-14T09:02:53;24.73;;;22.30;;
9547;SDS011;4812;51.992;8.648;2022-10-14T09:05:22;23.20;;;20.87;;
9547;SDS011;4812;51.992;8.648;2022-10-14T09:07:51;24.00;;;21.70;;
9547;SDS011;4812;51.992;8.648;2022-10-14T09:10:23;23.80;;;21.60;;
9547;SDS011;4812;51.992;8.648;2022-10-14T09:12:54;23.93;;;21.80;;
9547;SDS011;4812;51.992;8.648;2022-10-14T09:15:26;23.87;;;21.77;;
9547;SDS011;4812;51.992;8.648;2022-10-14T09:18:00;23.00;;;20.90;;
9547;SDS011;4812;51.992;8.648;2022-10-14T09:20:31;22.43;;;20.53;;
9547;SDS011;4812;51.992;8.648;2022-10-14T09:23:01;21.80;;;19.57;;
9547;SDS011;4812;51.992;8.648;2022-10-14T09:25:36;22.87;;;20.87;;
9547;SDS011;4812;51.992;8.648;2022-10-14T09:28:05;21.57;;;19.77;;
9547;SDS011;4812;51.992;8.648;2022-10-14T09:30:35;21.27;;;19.47;;
9547;SDS011;4812;51.992;8.648;2022-10-14T09:33:03;21.27;;;19.50;;
9547;SDS011;4812;51.992;8.648;2022-10-14T09:35:32;21.47;;;19.57;;
9547;SDS011;4812;51.992;8.648;2022-10-14T09:38:01;20.50;;;18.80;;
9547;SDS011;4812;51.992;8.648;2022-10-14T09:40:29;21.07;;;19.37;;
9547;SDS011;4812;51.992;8.648;2022-10-14T09:42:58;20.57;;;18.90;;
9547;SDS011;4812;51.992;8.648;2022-10-14T09:45:28;20.20;;;18.60;;
9547;SDS011;4812;51.992;8.648;2022-10-14T09:47:58;19.53;;;17.97;;
9547;SDS011;4812;51.992;8.648;2022-10-14T09:50:30;19.80;;;18.30;;
9547;SDS011;4812;51.992;8.648;2022-10-14T09:53:00;19.13;;;17.63;;
9547;SDS011;4812;51.992;8.648;2022-10-14T09:55:28;20.03;;;18.47;;
9547;SDS011;4812;51.992;8.648;2022-10-14T09:57:59;20.57;;;18.90;;
9547;SDS011;4812;51.992;8.648;2022-10-14T10:00:30;20.40;;;18.70;;
9547;SDS011;4812;51.992;8.648;2022-10-14T10:02:59;20.53;;;18.83;;
9547;SDS011;4812;51.992;8.648;2022-10-14T10:05:28;19.97;;;18.37;;
9547;SDS011;4812;51.992;8.648;2022-10-14T10:08:00;20.33;;;18.60;;
9547;SDS011;4812;51.992;8.648;2022-10-14T10:10:30;20.67;;;19.03;;
9547;SDS011;4812;51.992;8.648;2022-10-14T10:13:00;20.13;;;18.53;;
9547;SDS011;4812;51.992;8.648;2022-10-14T10:15:28;18.70;;;17.30;;
9547;SDS011;4812;51.992;8.648;2022-10-14T10:17:56;19.37;;;17.87;;
9547;SDS011;4812;51.992;8.648;2022-10-14T10:20:25;19.37;;;17.87;;
9547;SDS011;4812;51.992;8.648;2022-10-14T10:23:15;19.70;;;18.03;;
9547;SDS011;4812;51.992;8.648;2022-10-14T10:25:50;19.47;;;17.97;;
9547;SDS011;4812;51.992;8.648;2022-10-14T10:28:20;20.33;;;18.73;;
9547;SDS011;4812;51.992;8.648;2022-10-14T10:30:59;19.50;;;18.00;;
9547;SDS011;4812;51.992;8.648;2022-10-14T10:33:32;19.63;;;18.10;;
9547;SDS011;4812;51.992;8.648;2022-10-14T10:36:13;19.13;;;17.73;;
9547;SDS011;4812;51.992;8.648;2022-10-14T10:38:56;19.57;;;18.07;;
9547;SDS011;4812;51.992;8.648;2022-10-14T10:41:29;18.90;;;17.50;;
9547;SDS011;4812;51.992;8.648;2022-10-14T10:44:09;19.47;;;18.00;;
9547;SDS011;4812;51.992;8.648;2022-10-14T10:46:52;18.23;;;16.93;;
9547;SDS011;4812;51.992;8.648;2022-10-14T10:49:36;19.20;;;17.77;;
9547;SDS011;4812;51.992;8.648;2022-10-14T10:52:12;21.10;;;19.50;;
9547;SDS011;4812;51.992;8.648;2022-10-14T10:54:48;20.33;;;18.83;;
9547;SDS011;4812;51.992;8.648;2022-10-14T10:57:23;19.17;;;17.77;;
9547;SDS011;4812;51.992;8.648;2022-10-14T10:59:58;19.07;;;17.57;;
9547;SDS011;4812;51.992;8.648;2022-10-14T11:05:24;18.33;;;16.77;;
9547;SDS011;4812;51.992;8.648;2022-10-14T11:08:01;18.00;;;16.70;;
9547;SDS011;4812;51.992;8.648;2022-10-14T11:10:55;18.30;;;17.00;;
9547;SDS011;4812;51.992;8.648;2022-10-14T11:13:56;18.00;;;16.60;;
9547;SDS011;4812;51.992;8.648;2022-10-14T11:16:31;18.20;;;16.90;;
9547;SDS011;4812;51.992;8.648;2022-10-14T11:19:03;18.27;;;16.97;;
9547;SDS011;4812;51.992;8.648;2022-10-14T11:21:41;18.20;;;16.90;;
9547;SDS011;4812;51.992;8.648;2022-10-14T11:24:15;17.83;;;16.47;;
9547;SDS011;4812;51.992;8.648;2022-10-14T11:26:56;18.23;;;16.93;;
9547;SDS011;4812;51.992;8.648;2022-10-14T11:29:33;18.63;;;17.23;;
9547;SDS011;4812;51.992;8.648;2022-10-14T11:32:08;17.97;;;16.67;;
9547;SDS011;4812;51.992;8.648;2022-10-14T11:34:41;17.87;;;16.63;;
9547;SDS011;4812;51.992;8.648;2022-10-14T11:37:13;18.13;;;16.73;;
9547;SDS011;4812;51.992;8.648;2022-10-14T11:39:48;17.60;;;16.30;;
9547;SDS011;4812;51.992;8.648;2022-10-14T11:42:22;18.10;;;16.70;;
9547;SDS011;4812;51.992;8.648;2022-10-14T11:44:59;17.90;;;16.60;;
9547;SDS011;4812;51.992;8.648;2022-10-14T11:47:36;17.87;;;16.57;;
9547;SDS011;4812;51.992;8.648;2022-10-14T11:50:10;17.87;;;16.67;;
9547;SDS011;4812;51.992;8.648;2022-10-14T11:52:42;18.07;;;16.70;;
9547;SDS011;4812;51.992;8.648;2022-10-14T11:55:14;17.87;;;16.67;;
9547;SDS011;4812;51.992;8.648;2022-10-14T11:57:42;18.03;;;16.83;;
9547;SDS011;4812;51.992;8.648;2022-10-14T12:00:12;18.90;;;17.50;;
9547;SDS011;4812;51.992;8.648;2022-10-14T12:05:32;19.10;;;17.50;;
9547;SDS011;4812;51.992;8.648;2022-10-14T12:08:06;18.50;;;17.17;;
9547;SDS011;4812;51.992;8.648;2022-10-14T12:10:44;18.70;;;17.40;;
9547;SDS011;4812;51.992;8.648;2022-10-14T12:13:15;18.70;;;17.40;;
9547;SDS011;4812;51.992;8.648;2022-10-14T12:15:46;18.10;;;16.87;;
9547;SDS011;4812;51.992;8.648;2022-10-14T12:36:43;18.07;;;16.77;;
9547;SDS011;4812;51.992;8.648;2022-10-14T12:39:21;17.87;;;16.67;;
9547;SDS011;4812;51.992;8.648;2022-10-14T12:41:57;17.67;;;16.47;;
9547;SDS011;4812;51.992;8.648;2022-10-14T12:44:28;17.77;;;16.57;;
9547;SDS011;4812;51.992;8.648;2022-10-14T12:47:00;18.37;;;17.07;;
9547;SDS011;4812;51.992;8.648;2022-10-14T12:49:29;18.10;;;16.90;;
9547;SDS011;4812;51.992;8.648;2022-10-14T12:51:59;18.50;;;17.30;;
9547;SDS011;4812;51.992;8.648;2022-10-14T12:54:28;17.70;;;16.60;;
9547;SDS011;4812;51.992;8.648;2022-10-14T12:56:56;17.73;;;16.63;;
9547;SDS011;4812;51.992;8.648;2022-10-14T12:59:26;17.63;;;16.43;;
9547;SDS011;4812;51.992;8.648;2022-10-14T13:01:55;17.00;;;15.90;;
9547;SDS011;4812;51.992;8.648;2022-10-14T13:04:24;17.73;;;16.53;;
9547;SDS011;4812;51.992;8.648;2022-10-14T13:07:25;16.97;;;15.77;;
9547;SDS011;4812;51.992;8.648;2022-10-14T13:10:25;17.40;;;16.30;;
9547;SDS011;4812;51.992;8.648;2022-10-14T15:01:17;11.50;;;10.70;;
9547;SDS011;4812;51.992;8.648;2022-10-14T15:03:51;11.63;;;11.03;;
9547;SDS011;4812;51.992;8.648;2022-10-14T15:06:39;13.00;;;12.17;;
9547;SDS011;4812;51.992;8.648;2022-10-14T15:09:19;13.07;;;12.27;;
9547;SDS011;4812;51.992;8.648;2022-10-14T15:11:48;13.70;;;12.70;;
9547;SDS011;4812;51.992;8.648;2022-10-14T15:14:25;13.83;;;12.83;;
9547;SDS011;4812;51.992;8.648;2022-10-14T15:16:58;14.30;;;13.40;;
9547;SDS011;4812;51.992;8.648;2022-10-14T15:19:27;14.70;;;13.53;;
9547;SDS011;4812;51.992;8.648;2022-10-14T15:22:23;14.73;;;13.70;;
9547;SDS011;4812;51.992;8.648;2022-10-14T15:25:05;17.13;;;15.93;;
9547;SDS011;4812;51.992;8.648;2022-10-14T15:27:38;21.13;;;19.30;;
9547;SDS011;4812;51.992;8.648;2022-10-14T15:33:04;19.70;;;18.20;;
9547;SDS011;4812;51.992;8.648;2022-10-14T15:35:39;19.53;;;18.03;;
9547;SDS011;4812;51.992;8.648;2022-10-14T15:38:09;19.20;;;17.70;;
9547;SDS011;4812;51.992;8.648;2022-10-14T15:40:41;18.97;;;17.47;;
9547;SDS011;4812;51.992;8.648;2022-10-14T15:43:11;18.00;;;16.53;;
9547;SDS011;4812;51.992;8.648;2022-10-14T15:45:44;17.27;;;15.90;;
9547;SDS011;4812;51.992;8.648;2022-10-14T15:48:35;17.10;;;15.80;;
9547;SDS011;4812;51.992;8.648;2022-10-14T15:51:02;16.43;;;15.13;;
9547;SDS011;4812;51.992;8.648;2022-10-14T15:53:30;17.03;;;15.63;;
9547;SDS011;4812;51.992;8.648;2022-10-14T15:55:57;15.97;;;14.73;;
9547;SDS011;4812;51.992;8.648;2022-10-14T15:58:26;16.83;;;15.20;;
9547;SDS011;4812;51.992;8.648;2022-10-14T16:00:53;16.70;;;15.20;;
9547;SDS011;4812;51.992;8.648;2022-10-14T16:03:21;16.77;;;15.13;;
9547;SDS011;4812;51.992;8.648;2022-10-14T16:05:49;16.53;;;15.03;;
9547;SDS011;4812;51.992;8.648;2022-10-14T16:08:17;16.53;;;15.13;;
9547;SDS011;4812;51.992;8.648;2022-10-14T16:10:44;16.80;;;15.27;;
9547;SDS011;4812;51.992;8.648;2022-10-14T16:13:13;16.90;;;15.40;;
9547;SDS011;4812;51.992;8.648;2022-10-14T16:15:43;16.87;;;15.43;;
9547;SDS011;4812;51.992;8.648;2022-10-14T16:18:13;16.80;;;15.30;;
9547;SDS011;4812;51.992;8.648;2022-10-14T16:20:41;17.10;;;15.50;;
9547;SDS011;4812;51.992;8.648;2022-10-14T16:23:10;18.27;;;16.40;;
9547;SDS011;4812;51.992;8.648;2022-10-14T16:25:41;17.70;;;16.00;;
9547;SDS011;4812;51.992;8.648;2022-10-14T16:28:12;17.10;;;15.30;;
9547;SDS011;4812;51.992;8.648;2022-10-14T16:30:40;17.47;;;15.67;;
9547;SDS011;4812;51.992;8.648;2022-10-14T16:33:14;16.87;;;15.10;;
9547;SDS011;4812;51.992;8.648;2022-10-14T16:35:42;17.20;;;15.43;;
9547;SDS011;4812;51.992;8.648;2022-10-14T16:38:13;17.50;;;15.70;;
9547;SDS011;4812;51.992;8.648;2022-10-14T16:40:40;18.43;;;15.87;;
9547;SDS011;4812;51.992;8.648;2022-10-14T16:43:11;16.30;;;14.77;;
9547;SDS011;4812;51.992;8.648;2022-10-14T16:45:38;17.27;;;15.53;;
9547;SDS011;4812;51.992;8.648;2022-10-14T16:48:07;16.03;;;14.63;;
9547;SDS011;4812;51.992;8.648;2022-10-14T16:50:34;16.40;;;14.80;;
9547;SDS011;4812;51.992;8.648;2022-10-14T16:53:01;17.13;;;15.43;;
9547;SDS011;4812;51.992;8.648;2022-10-14T16:55:49;18.53;;;14.90;;
9547;SDS011;4812;51.992;8.648;2022-10-14T16:58:17;17.43;;;15.67;;
9547;SDS011;4812;51.992;8.648;2022-10-14T17:00:44;17.37;;;15.47;;
9547;SDS011;4812;51.992;8.648;2022-10-14T17:03:13;17.50;;;15.67;;
9547;SDS011;4812;51.992;8.648;2022-10-14T17:05:42;17.47;;;15.73;;
9547;SDS011;4812;51.992;8.648;2022-10-14T17:08:12;17.30;;;15.60;;
9547;SDS011;4812;51.992;8.648;2022-10-14T17:10:40;16.77;;;15.10;;
9547;SDS011;4812;51.992;8.648;2022-10-14T17:13:09;18.93;;;15.97;;
9547;SDS011;4812;51.992;8.648;2022-10-14T17:15:36;16.00;;;14.50;;
9547;SDS011;4812;51.992;8.648;2022-10-14T17:18:04;16.60;;;14.83;;
9547;SDS011;4812;51.992;8.648;2022-10-14T17:20:36;19.80;;;15.63;;
9547;SDS011;4812;51.992;8.648;2022-10-14T17:23:03;17.77;;;15.77;;
9547;SDS011;4812;51.992;8.648;2022-10-14T17:25:37;18.83;;;15.17;;
9547;SDS011;4812;51.992;8.648;2022-10-14T17:28:05;16.90;;;15.30;;
9547;SDS011;4812;51.992;8.648;2022-10-14T17:30:34;18.17;;;16.00;;